Time;durP1;ratioP1;P1;durP2;ratioP2;P2;SDS_P1;SDS_P2;PMS_P1;PMS_P2;Temp;Humidity;BMP_temperature;BMP_pressure;BME280_temperature;BME280_humidity;BME280_pressure;Samples;Min_cycle;Max_cycle;Signal;HPM_P1;HPM_P2
2023/12/18 00:02:55;;;;;;;40.15;11.50;;;9.80;99.90;;;;;;10555889;27;20664;-60
2023/12/18 00:07:56;;;;;;;24.23;9.25;;;9.90;99.90;;;;;;10560220;27;20054;-60
2023/12/18 00:13:00;;;;;;;27.85;10.10;;;10.00;99.90;;;;;;10561023;27;20067;-61
2023/12/18 00:18:02;;;;;;;38.67;11.23;;;10.00;99.90;;;;;;10476012;28;20074;-59
2023/12/18 00:23:04;;;;;;;31.70;11.30;;;9.90;99.90;;;;;;10478913;28;20534;-59
2023/12/18 00:28:07;;;;;;;36.27;12.30;;;10.50;99.90;;;;;;10481821;28;20055;-62
2023/12/18 00:33:09;;;;;;;34.72;10.20;;;9.70;99.90;;;;;;10485171;28;20807;-58
2023/12/18 00:38:11;;;;;;;40.80;10.65;;;10.60;99.90;;;;;;10478589;28;20159;-60
2023/12/18 00:43:15;;;;;;;30.55;10.23;;;10.20;99.90;;;;;;10482222;28;20122;-60
2023/12/18 00:48:17;;;;;;;29.50;9.05;;;10.30;99.90;;;;;;10481559;28;20044;-60
2023/12/18 00:53:19;;;;;;;49.60;13.93;;;9.80;99.90;;;;;;10489339;28;20059;-60
2023/12/18 00:58:23;;;;;;;42.53;13.52;;;9.50;99.90;;;;;;10484727;28;20053;-59
2023/12/18 01:03:24;;;;;;;29.33;9.77;;;9.80;99.90;;;;;;10486593;28;20680;-60
2023/12/18 01:08:26;;;;;;;38.75;12.15;;;10.00;99.90;;;;;;10490733;28;20867;-60
2023/12/18 01:13:30;;;;;;;47.47;13.98;;;10.40;99.90;;;;;;10496530;27;20145;-60
2023/12/18 01:18:32;;;;;;;33.50;10.27;;;9.80;99.90;;;;;;10568837;27;20577;-59
2023/12/18 01:23:34;;;;;;;34.10;8.70;;;9.70;99.90;;;;;;10564074;27;20430;-60
2023/12/18 01:28:40;;;;;;;34.83;9.95;;;10.80;99.90;;;;;;10567464;27;20045;-61
2023/12/18 01:33:42;;;;;;;35.53;8.85;;;10.70;99.90;;;;;;10568025;27;20383;-61
2023/12/18 01:38:44;;;;;;;28.42;7.97;;;11.20;99.90;;;;;;10567286;27;20047;-59
2023/12/18 01:43:47;;;;;;;25.50;8.40;;;11.10;99.90;;;;;;10564483;27;20109;-60
2023/12/18 01:48:50;;;;;;;24.40;8.52;;;11.40;99.90;;;;;;10570655;27;20074;-61
2023/12/18 01:53:56;;;;;;;22.33;7.93;;;11.10;99.90;;;;;;10565104;27;20062;-60
2023/12/18 01:59:02;;;;;;;25.02;7.53;;;10.70;99.90;;;;;;10564349;27;20047;-61
2023/12/18 02:04:05;;;;;;;32.35;9.18;;;10.80;99.90;;;;;;10571502;27;20066;-60
2023/12/18 02:09:07;;;;;;;28.33;7.30;;;10.70;99.90;;;;;;10562525;27;20043;-61
2023/12/18 02:14:11;;;;;;;18.57;6.90;;;11.00;99.90;;;;;;10561441;27;20074;-60
2023/12/18 02:19:23;;;;;;;23.65;6.43;;;11.00;99.90;;;;;;10560824;27;20047;-61
2023/12/18 02:24:27;;;;;;;23.42;8.35;;;11.20;99.90;;;;;;10557944;27;20056;-60
2023/12/18 02:29:28;;;;;;;32.60;7.60;;;11.20;99.90;;;;;;10559919;27;20048;-60
2023/12/18 02:34:30;;;;;;;32.53;8.20;;;11.10;99.90;;;;;;10556752;27;20078;-61
2023/12/18 02:39:34;;;;;;;24.98;6.43;;;10.60;99.90;;;;;;10560884;27;20132;-60
2023/12/18 02:44:35;;;;;;;23.02;6.82;;;10.50;99.90;;;;;;10559445;27;20078;-61
2023/12/18 02:49:37;;;;;;;22.77;5.47;;;11.30;99.90;;;;;;10561491;27;20055;-61
2023/12/18 02:54:41;;;;;;;25.92;6.30;;;11.80;99.90;;;;;;10559005;27;20051;-60
2023/12/18 02:59:43;;;;;;;31.60;7.32;;;12.10;99.90;;;;;;10566284;27;20055;-62
2023/12/18 03:04:45;;;;;;;19.33;6.70;;;11.00;99.90;;;;;;10562470;27;20060;-60
2023/12/18 03:09:48;;;;;;;20.73;7.55;;;12.10;99.90;;;;;;10562785;27;20044;-61
2023/12/18 03:14:50;;;;;;;16.17;5.68;;;11.80;99.90;;;;;;10567205;27;22506;-60
2023/12/18 03:19:52;;;;;;;23.70;7.70;;;12.40;99.90;;;;;;10556877;27;20323;-61
2023/12/18 03:24:56;;;;;;;24.07;7.13;;;12.60;99.90;;;;;;10559479;27;20082;-61
2023/12/18 03:29:58;;;;;;;25.17;8.05;;;12.90;99.90;;;;;;10563778;27;20776;-61
2023/12/18 03:35:00;;;;;;;33.07;8.23;;;12.10;99.90;;;;;;10561510;27;20430;-62
2023/12/18 03:40:04;;;;;;;28.10;8.18;;;12.50;99.90;;;;;;10554877;27;20712;-61
2023/12/18 03:45:07;;;;;;;24.10;7.13;;;13.00;99.90;;;;;;10559694;27;20500;-61
2023/12/18 03:50:10;;;;;;;;;;;13.00;99.90;;;;;;10549895;27;20050;-61
2023/12/18 03:55:13;;;;;;;20.60;7.70;;;11.30;99.90;;;;;;10562298;27;19971;-61
2023/12/18 04:15:32;;;;;;;29.98;8.98;;;13.40;99.90;;;;;;10615413;27;20112;-60
2023/12/18 04:20:34;;;;;;;17.85;6.07;;;11.60;99.90;;;;;;10622469;27;20046;-60
2023/12/18 04:25:36;;;;;;;16.02;5.60;;;13.20;99.90;;;;;;10627337;27;20058;-60
2023/12/18 04:30:40;;;;;;;25.73;8.15;;;14.00;99.90;;;;;;10624599;27;22079;-60
2023/12/18 04:35:42;;;;;;;26.63;8.48;;;14.20;99.90;;;;;;10624488;27;20070;-59
2023/12/18 04:40:44;;;;;;;19.70;8.77;;;14.50;99.90;;;;;;10624134;27;20051;-59
2023/12/18 04:45:47;;;;;;;21.93;7.80;;;12.50;99.90;;;;;;10607492;27;20074;-60
2023/12/18 04:50:49;;;;;;;26.42;8.77;;;11.70;99.90;;;;;;10615308;27;20058;-60
2023/12/18 04:55:51;;;;;;;24.10;7.80;;;11.90;99.90;;;;;;10615847;27;20085;-60
2023/12/18 05:00:58;;;;;;;22.75;7.70;;;12.00;99.90;;;;;;10614094;27;20501;-59
2023/12/18 05:06:00;;;;;;;21.65;7.72;;;12.10;99.90;;;;;;10608249;27;20588;-61
2023/12/18 05:11:02;;;;;;;26.38;9.57;;;12.40;99.90;;;;;;10612254;27;20058;-60
2023/12/18 05:16:06;;;;;;;33.72;9.98;;;12.00;99.90;;;;;;10610308;27;20629;-60
2023/12/18 05:21:08;;;;;;;25.45;7.90;;;11.40;99.90;;;;;;10611619;27;20954;-60
2023/12/18 05:26:10;;;;;;;26.95;9.77;;;11.80;99.90;;;;;;10588042;27;20054;-61
2023/12/18 05:31:15;;;;;;;19.75;8.00;;;12.20;99.90;;;;;;10591712;27;20162;-61
2023/12/18 05:36:17;;;;;;;26.98;9.32;;;12.60;99.90;;;;;;10588131;27;20440;-61
2023/12/18 05:41:19;;;;;;;27.20;9.13;;;12.50;99.90;;;;;;10585180;27;20096;-60
2023/12/18 05:46:22;;;;;;;17.70;7.78;;;12.30;99.90;;;;;;10584375;27;20085;-60
2023/12/18 05:51:25;;;;;;;23.05;9.20;;;12.70;99.90;;;;;;10582789;27;20894;-62
2023/12/18 05:56:27;;;;;;;27.80;7.77;;;12.10;99.90;;;;;;10585787;27;20122;-60
2023/12/18 06:01:30;;;;;;;27.52;7.40;;;12.80;99.90;;;;;;10585840;27;20557;-61
2023/12/18 06:06:32;;;;;;;14.00;6.18;;;13.80;99.90;;;;;;10580182;27;20638;-60
2023/12/18 06:11:34;;;;;;;18.20;8.23;;;15.60;99.90;;;;;;10582626;27;20103;-60
2023/12/18 06:16:38;;;;;;;15.50;6.32;;;15.30;99.90;;;;;;10584684;27;20290;-60
2023/12/18 06:21:41;;;;;;;17.20;8.75;;;16.40;98.60;;;;;;10569018;27;20039;-61
2023/12/18 06:26:44;;;;;;;15.82;6.68;;;16.00;99.40;;;;;;10580500;27;20062;-61
2023/12/18 06:31:48;;;;;;;;;;;15.60;99.90;;;;;;10583191;27;20047;-60
2023/12/18 06:36:50;;;;;;;20.95;10.27;;;15.30;99.90;;;;;;10584881;27;19923;-60
2023/12/18 06:41:52;;;;;;;22.73;9.47;;;14.20;99.90;;;;;;10579127;27;20054;-60
2023/12/18 06:46:55;;;;;;;13.27;7.70;;;14.50;99.90;;;;;;10577722;27;20056;-60
2023/12/18 06:51:57;;;;;;;23.10;10.38;;;14.80;99.90;;;;;;10579332;27;20488;-61
2023/12/18 06:56:59;;;;;;;11.27;7.00;;;15.40;98.00;;;;;;10580898;27;20270;-60
2023/12/18 07:02:03;;;;;;;10.43;5.47;;;15.60;99.90;;;;;;10580386;27;20505;-62
2023/12/18 07:07:05;;;;;;;22.65;10.68;;;15.40;99.90;;;;;;10582703;27;20054;-60
2023/12/18 07:12:08;;;;;;;25.33;10.33;;;14.20;99.90;;;;;;10582727;27;20156;-60
2023/12/18 07:17:11;;;;;;;16.85;8.77;;;13.10;99.90;;;;;;10582132;27;20468;-61
2023/12/18 07:22:14;;;;;;;19.63;8.80;;;15.20;99.90;;;;;;10577920;27;20239;-60
2023/12/18 07:27:16;;;;;;;17.88;8.05;;;14.60;99.90;;;;;;10585386;27;20055;-60
2023/12/18 07:32:19;;;;;;;14.77;6.20;;;14.80;99.90;;;;;;10581432;27;20127;-60
2023/12/18 07:37:21;;;;;;;25.80;12.15;;;14.70;99.90;;;;;;10582571;27;20043;-60
2023/12/18 07:42:24;;;;;;;32.33;11.85;;;13.40;99.90;;;;;;10581459;27;20919;-61
2023/12/18 07:47:27;;;;;;;8.40;5.22;;;12.50;99.90;;;;;;10577392;27;20043;-60
2023/12/18 07:52:29;;;;;;;21.38;10.93;;;12.70;99.90;;;;;;10579622;27;21128;-61
2023/12/18 07:57:31;;;;;;;20.30;10.33;;;15.10;99.90;;;;;;10575663;27;20137;-61
2023/12/18 08:02:34;;;;;;;25.02;14.32;;;13.60;99.90;;;;;;10579999;27;20043;-60
2023/12/18 08:07:37;;;;;;;25.00;12.52;;;12.50;99.90;;;;;;10577313;27;20051;-62
2023/12/18 08:12:39;;;;;;;24.95;12.27;;;11.80;99.90;;;;;;10577811;27;20067;-60
2023/12/18 08:17:42;;;;;;;27.05;14.55;;;11.60;99.90;;;;;;10577926;27;20400;-60
2023/12/18 08:22:44;;;;;;;22.13;12.80;;;10.90;99.90;;;;;;10578586;27;20161;-61
2023/12/18 08:27:46;;;;;;;35.92;17.67;;;11.30;99.90;;;;;;10582852;27;21017;-59
2023/12/18 08:32:49;;;;;;;24.13;12.60;;;10.40;99.90;;;;;;10581391;27;20096;-57
2023/12/18 08:37:51;;;;;;;28.05;11.43;;;12.00;99.90;;;;;;10581838;27;20101;-60
2023/12/18 08:42:53;;;;;;;24.17;12.63;;;13.30;99.90;;;;;;10581050;27;20050;-60
2023/12/18 08:47:59;;;;;;;24.00;11.65;;;12.50;99.90;;;;;;10580286;27;20744;-59
2023/12/18 08:53:01;;;;;;;27.77;10.23;;;12.70;99.90;;;;;;10576066;27;20047;-61
2023/12/18 08:58:03;;;;;;;14.67;8.33;;;14.30;99.90;;;;;;10577666;27;20047;-61
2023/12/18 09:03:07;;;;;;;25.05;11.38;;;15.40;99.90;;;;;;10585204;27;20908;-61
2023/12/18 09:08:11;;;;;;;12.20;6.43;;;14.50;99.70;;;;;;10587438;27;20039;-61
2023/12/18 09:13:13;;;;;;;16.48;7.90;;;15.90;99.90;;;;;;10583765;27;20070;-61
2023/12/18 09:18:16;;;;;;;24.20;11.00;;;14.20;99.90;;;;;;10582627;27;20077;-60
2023/12/18 09:23:18;;;;;;;16.13;7.50;;;14.10;99.90;;;;;;10583043;27;20235;-60
2023/12/18 09:28:20;;;;;;;20.15;10.52;;;13.80;99.90;;;;;;10583867;27;20812;-60
2023/12/18 09:33:24;;;;;;;21.95;12.98;;;12.10;99.90;;;;;;10583832;27;20050;-59
2023/12/18 09:38:26;;;;;;;19.55;8.52;;;11.40;99.90;;;;;;10580977;27;20506;-61
2023/12/18 09:43:28;;;;;;;34.60;16.17;;;12.50;99.90;;;;;;10581287;27;20413;-60
2023/12/18 09:48:31;;;;;;;33.13;14.77;;;11.30;99.90;;;;;;10576828;27;23394;-60
2023/12/18 09:53:33;;;;;;;17.38;10.50;;;11.20;99.90;;;;;;10577286;27;21070;-61
2023/12/18 09:58:37;;;;;;;20.67;11.57;;;11.20;99.90;;;;;;10580062;27;20058;-60
2023/12/18 10:03:40;;;;;;;24.38;12.45;;;12.50;99.90;;;;;;10582723;27;20043;-60
2023/12/18 10:08:42;;;;;;;30.35;15.57;;;12.60;99.90;;;;;;10580855;27;20054;-61
2023/12/18 10:13:44;;;;;;;23.70;12.93;;;11.30;99.90;;;;;;10581499;27;20711;-60
2023/12/18 10:18:50;;;;;;;24.95;14.63;;;11.40;99.90;;;;;;10577896;27;20047;-60
2023/12/18 10:23:53;;;;;;;33.63;15.55;;;10.60;99.90;;;;;;10582054;27;20046;-61
2023/12/18 10:28:55;;;;;;;;;;;10.90;99.90;;;;;;10578879;27;20103;-59
2023/12/18 10:33:58;;;;;;;29.17;15.57;;;10.90;99.90;;;;;;10579289;27;19930;-61
2023/12/18 10:39:02;;;;;;;30.75;16.15;;;11.30;99.90;;;;;;10578138;27;20313;-61
2023/12/18 10:44:05;;;;;;;28.70;12.40;;;11.40;99.90;;;;;;10577164;27;20043;-60
2023/12/18 10:49:10;;;;;;;34.17;15.70;;;12.10;99.90;;;;;;10578378;27;20528;-61
2023/12/18 10:54:13;;;;;;;33.70;16.92;;;11.40;99.90;;;;;;10576358;27;20166;-61
2023/12/18 10:59:16;;;;;;;35.53;17.33;;;10.80;99.90;;;;;;10576020;27;21042;-59
2023/12/18 11:04:22;;;;;;;28.08;15.60;;;10.70;99.90;;;;;;10574664;27;21028;-59
2023/12/18 11:09:23;;;;;;;25.17;14.18;;;11.30;99.90;;;;;;10576608;27;20039;-61
2023/12/18 11:14:35;;;;;;;28.27;14.27;;;11.80;99.90;;;;;;10577457;27;20040;-59
2023/12/18 11:19:48;;;;;;;35.88;19.80;;;11.30;99.90;;;;;;10582108;27;20039;-61
2023/12/18 11:24:50;;;;;;;40.08;20.25;;;10.60;99.90;;;;;;10581688;27;20051;-61
2023/12/18 11:29:52;;;;;;;36.33;16.70;;;10.20;99.90;;;;;;10579542;27;20062;-60
2023/12/18 11:34:58;;;;;;;41.05;22.33;;;10.70;99.90;;;;;;10579522;27;20038;-59
2023/12/18 11:40:00;;;;;;;32.58;14.52;;;10.50;99.90;;;;;;10584499;27;20047;-60
2023/12/18 11:45:06;;;;;;;24.65;14.40;;;11.00;99.90;;;;;;10578856;27;20047;-61
2023/12/18 11:50:10;;;;;;;26.83;10.95;;;11.10;99.90;;;;;;10577582;27;20094;-59
2023/12/18 11:55:13;;;;;;;26.40;12.25;;;13.20;99.90;;;;;;10577008;27;20075;-58
2023/12/18 12:00:18;;;;;;;29.60;14.13;;;11.30;99.90;;;;;;10580444;27;20050;-60
2023/12/18 12:05:22;;;;;;;32.33;13.52;;;11.30;99.90;;;;;;10575171;27;20871;-61
2023/12/18 12:10:25;;;;;;;28.67;16.58;;;11.00;99.90;;;;;;10576322;27;20673;-60
2023/12/18 12:15:28;;;;;;;18.00;9.50;;;11.30;99.90;;;;;;10574765;27;20051;-60
2023/12/18 12:20:31;;;;;;;29.75;13.27;;;11.40;99.90;;;;;;10576223;27;20043;-60
2023/12/18 12:25:33;;;;;;;26.10;15.60;;;11.40;99.90;;;;;;10576769;27;20043;-61
2023/12/18 12:30:36;;;;;;;35.87;14.67;;;10.90;99.90;;;;;;10575022;27;20051;-60
2023/12/18 12:35:39;;;;;;;31.30;16.03;;;10.60;99.90;;;;;;10578864;27;20595;-58
2023/12/18 12:40:43;;;;;;;27.27;14.35;;;11.10;99.90;;;;;;10585136;27;20298;-60
2023/12/18 12:45:45;;;;;;;30.65;13.45;;;10.80;99.90;;;;;;10582372;27;20108;-60
2023/12/18 12:50:49;;;;;;;24.63;11.20;;;10.90;99.90;;;;;;10578966;27;20046;-60
2023/12/18 12:55:51;;;;;;;27.05;13.90;;;11.40;99.90;;;;;;10585209;27;20070;-62
2023/12/18 13:00:53;;;;;;;26.57;13.10;;;11.90;99.90;;;;;;10583304;27;20047;-60
2023/12/18 13:05:57;;;;;;;25.65;14.18;;;12.10;99.90;;;;;;10583175;27;20047;-61
2023/12/18 13:11:01;;;;;;;32.13;13.68;;;11.60;99.90;;;;;;10582928;27;20047;-60
2023/12/18 13:16:04;;;;;;;22.52;11.07;;;11.40;99.90;;;;;;10585215;27;20035;-61
2023/12/18 13:21:07;;;;;;;32.90;13.23;;;12.00;99.90;;;;;;10593299;27;20054;-60
2023/12/18 13:26:09;;;;;;;34.35;15.40;;;11.80;99.90;;;;;;10584821;27;20054;-60
2023/12/18 13:31:11;;;;;;;20.42;7.80;;;12.30;99.90;;;;;;10586057;27;20142;-61
2023/12/18 13:36:15;;;;;;;21.17;10.93;;;11.90;99.90;;;;;;10582024;27;20880;-64
2023/12/18 13:41:17;;;;;;;20.10;9.93;;;12.60;99.90;;;;;;10579704;27;20199;-60
2023/12/18 13:46:19;;;;;;;20.77;12.15;;;12.90;99.90;;;;;;10578558;27;20050;-61
2023/12/18 13:51:22;;;;;;;27.83;14.03;;;13.20;99.90;;;;;;10585020;27;20137;-61
2023/12/18 13:56:26;;;;;;;27.65;14.32;;;11.90;99.90;;;;;;10583194;27;20047;-60
2023/12/18 14:01:28;;;;;;;37.10;16.77;;;11.80;99.90;;;;;;10585010;27;20054;-60
2023/12/18 14:06:31;;;;;;;25.70;11.52;;;11.20;99.90;;;;;;10584329;27;20054;-59
2023/12/18 14:11:34;;;;;;;27.85;13.25;;;11.90;99.90;;;;;;10582578;27;20496;-60
2023/12/18 14:16:36;;;;;;;27.00;13.23;;;12.90;99.90;;;;;;10580015;27;20043;-60
2023/12/18 14:21:39;;;;;;;21.27;10.95;;;12.50;99.90;;;;;;10581930;27;20417;-60
2023/12/18 14:26:41;;;;;;;16.40;8.82;;;12.20;99.90;;;;;;10582306;27;20070;-60
2023/12/18 14:31:44;;;;;;;29.67;11.68;;;12.20;99.90;;;;;;10581353;27;20171;-60
2023/12/18 14:36:47;;;;;;;37.22;15.55;;;13.40;99.90;;;;;;10580514;27;20082;-61
2023/12/18 14:41:51;;;;;;;23.33;12.27;;;12.00;99.90;;;;;;10575539;27;20047;-61
2023/12/18 14:46:53;;;;;;;26.45;14.93;;;12.00;99.90;;;;;;10578180;27;20051;-58
2023/12/18 14:51:57;;;;;;;29.30;16.30;;;11.40;99.90;;;;;;10578443;27;20089;-61
2023/12/18 14:56:59;;;;;;;29.02;13.30;;;10.80;99.90;;;;;;10576546;27;20110;-55
2023/12/18 15:02:01;;;;;;;34.67;15.88;;;11.80;99.90;;;;;;10578920;27;20150;-59
2023/12/18 15:07:05;;;;;;;38.13;16.15;;;11.70;99.90;;;;;;10568844;27;20059;-60
2023/12/18 15:12:07;;;;;;;28.27;11.73;;;11.80;99.90;;;;;;10577764;27;20981;-59
2023/12/18 15:17:09;;;;;;;32.72;15.15;;;12.30;99.90;;;;;;10571858;27;20112;-60
2023/12/18 15:22:13;;;;;;;35.42;14.57;;;11.70;99.90;;;;;;10574647;27;20047;-62
2023/12/18 15:27:16;;;;;;;29.48;15.18;;;11.80;99.90;;;;;;10573639;27;20201;-61
2023/12/18 15:32:18;;;;;;;19.98;8.50;;;11.50;99.90;;;;;;10575084;27;20069;-61
2023/12/18 15:37:22;;;;;;;30.52;18.27;;;12.20;99.90;;;;;;10574535;27;20108;-60
2023/12/18 15:42:24;;;;;;;19.33;10.43;;;10.80;99.90;;;;;;10575434;27;20051;-60
2023/12/18 15:47:27;;;;;;;24.80;12.20;;;11.10;99.90;;;;;;10572775;27;20367;-61
2023/12/18 15:52:30;;;;;;;18.70;9.70;;;11.80;99.90;;;;;;10574874;27;20051;-60
2023/12/18 15:57:32;;;;;;;16.05;7.82;;;13.30;99.90;;;;;;10576158;27;20862;-61
2023/12/18 16:02:36;;;;;;;26.05;13.85;;;14.40;99.90;;;;;;10579465;27;20414;-59
2023/12/18 16:07:39;;;;;;;19.15;12.27;;;12.40;99.90;;;;;;10580844;27;20111;-64
2023/12/18 16:12:41;;;;;;;31.05;16.42;;;13.30;99.90;;;;;;10572770;27;20065;-62
2023/12/18 16:17:52;;;;;;;17.13;11.20;;;13.00;99.90;;;;;;10573128;27;20066;-59
2023/12/18 16:22:57;;;;;;;23.52;13.32;;;13.00;99.90;;;;;;10577485;27;20047;-59
2023/12/18 16:27:59;;;;;;;21.70;12.23;;;13.20;99.90;;;;;;10569855;27;20059;-60
2023/12/18 16:33:02;;;;;;;25.52;9.65;;;13.10;99.90;;;;;;10575634;27;20402;-59
2023/12/18 16:38:05;;;;;;;;;;;13.40;99.90;;;;;;10571927;27;20039;-60
2023/12/18 16:43:07;;;;;;;18.80;9.88;;;10.90;99.90;;;;;;10572733;27;19923;-61
2023/12/18 16:48:09;;;;;;;24.38;14.20;;;12.30;99.90;;;;;;10570059;27;20051;-59
2023/12/18 16:53:12;;;;;;;23.10;12.60;;;12.80;99.90;;;;;;10574613;27;20364;-61
2023/12/18 16:58:14;;;;;;;22.90;10.48;;;12.30;99.90;;;;;;10566875;27;20046;-60
2023/12/18 17:03:21;;;;;;;27.65;15.98;;;12.50;99.90;;;;;;10569714;27;20054;-59
2023/12/18 17:08:24;;;;;;;23.77;16.15;;;13.40;99.90;;;;;;10567722;27;20422;-61
2023/12/18 17:13:26;;;;;;;30.52;18.05;;;13.40;99.90;;;;;;10569681;27;20079;-59
2023/12/18 17:18:28;;;;;;;28.63;17.57;;;11.70;99.90;;;;;;10567396;27;20089;-60
2023/12/18 17:23:31;;;;;;;41.00;25.23;;;11.00;99.90;;;;;;10578974;27;20064;-59
2023/12/18 17:28:34;;;;;;;37.33;22.25;;;9.80;99.90;;;;;;10576164;27;20058;-60
2023/12/18 17:33:36;;;;;;;28.77;16.10;;;9.90;99.90;;;;;;10581041;27;20089;-60
2023/12/18 17:38:39;;;;;;;39.53;19.75;;;10.20;99.90;;;;;;10572025;27;20561;-59
2023/12/18 17:43:42;;;;;;;18.40;9.23;;;10.60;99.90;;;;;;10576030;27;20047;-60
2023/12/18 17:48:44;;;;;;;;;;;12.60;99.90;;;;;;10574011;27;20143;-62
2023/12/18 17:53:48;;;;;;;37.08;24.08;;;11.50;99.90;;;;;;10572621;27;19923;-61
2023/12/18 17:58:50;;;;;;;34.47;17.77;;;10.60;99.90;;;;;;10573716;27;20927;-61
2023/12/18 18:03:52;;;;;;;33.90;19.30;;;11.30;99.90;;;;;;10575544;27;20569;-61
2023/12/18 18:08:55;;;;;;;37.67;18.00;;;11.00;99.90;;;;;;10572499;27;20092;-60
2023/12/18 18:13:59;;;;;;;42.20;25.80;;;11.30;99.90;;;;;;10570309;27;20052;-59
2023/12/18 18:19:05;;;;;;;32.83;22.35;;;9.50;99.90;;;;;;10571840;27;20058;-60
2023/12/18 18:24:08;;;;;;;39.08;23.30;;;10.00;99.90;;;;;;10570672;27;20559;-61
2023/12/18 18:29:15;;;;;;;31.90;17.92;;;11.00;99.90;;;;;;10568024;27;20049;-60
2023/12/18 18:34:19;;;;;;;29.45;16.65;;;10.50;99.90;;;;;;10570671;27;20426;-59
2023/12/18 18:39:23;;;;;;;;;;;10.80;99.90;;;;;;10574049;27;20162;-59
2023/12/18 18:44:25;;;;;;;37.95;20.15;;;9.80;99.90;;;;;;10575242;27;19931;-60
2023/12/18 18:49:28;;;;;;;41.77;26.20;;;10.30;99.90;;;;;;10572769;27;20074;-58
2023/12/18 18:54:31;;;;;;;;;;;9.30;99.90;;;;;;10572564;27;20084;-59
2023/12/18 18:59:37;;;;;;;51.05;27.67;;;8.80;99.90;;;;;;10571348;27;20014;-61
2023/12/18 19:04:40;;;;;;;53.72;23.20;;;8.90;99.90;;;;;;10572593;27;20166;-60
2023/12/18 19:09:43;;;;;;;52.38;29.67;;;8.90;99.90;;;;;;10569742;27;20084;-61
2023/12/18 19:14:45;;;;;;;;;;;8.80;99.90;;;;;;10569366;27;20055;-59
2023/12/18 19:19:47;;;;;;;46.75;25.15;;;12.70;99.90;;;;;;10570184;27;20410;-56
2023/12/18 19:24:50;;;;;;;50.10;25.08;;;10.80;99.90;;;;;;10576153;27;20485;-58
2023/12/18 19:29:52;;;;;;;47.97;25.98;;;10.00;99.90;;;;;;10575294;27;20112;-56
2023/12/18 19:34:54;;;;;;;36.28;18.60;;;9.90;99.90;;;;;;10576855;27;20043;-62
2023/12/18 19:39:58;;;;;;;47.70;28.43;;;10.30;99.90;;;;;;10570743;27;20054;-57
2023/12/18 19:45:00;;;;;;;42.00;24.75;;;9.70;99.90;;;;;;10566038;27;20847;-61
2023/12/18 19:50:02;;;;;;;46.30;20.67;;;9.70;99.90;;;;;;10571933;27;20055;-60
2023/12/18 19:55:06;;;;;;;47.27;27.73;;;10.40;99.90;;;;;;10571462;27;20201;-61
2023/12/18 20:00:12;;;;;;;48.08;24.35;;;9.60;99.90;;;;;;10573147;27;20614;-60
2023/12/18 20:05:14;;;;;;;46.72;23.60;;;9.90;99.90;;;;;;10569846;27;20043;-60
2023/12/18 20:10:18;;;;;;;56.90;28.27;;;10.20;99.90;;;;;;10569779;27;20135;-61
2023/12/18 20:15:20;;;;;;;52.58;27.58;;;10.10;99.90;;;;;;10566194;27;20221;-64
2023/12/18 20:20:23;;;;;;;51.08;28.15;;;9.90;99.90;;;;;;10565619;27;22514;-64
2023/12/18 20:25:28;;;;;;;56.33;24.95;;;9.90;99.90;;;;;;10566608;28;20054;-64
2023/12/18 20:30:30;;;;;;;48.42;26.42;;;10.20;99.90;;;;;;10572214;27;20174;-63
2023/12/18 20:35:32;;;;;;;54.05;28.80;;;10.00;99.90;;;;;;10571213;27;20063;-63
2023/12/18 20:40:35;;;;;;;64.63;31.25;;;10.00;99.90;;;;;;10566208;27;20065;-63
2023/12/18 20:45:37;;;;;;;63.80;28.52;;;9.80;99.90;;;;;;10573503;27;20128;-62
2023/12/18 20:50:40;;;;;;;58.38;25.33;;;9.90;99.90;;;;;;10569876;27;20051;-62
2023/12/18 20:55:43;;;;;;;56.27;26.47;;;9.60;99.90;;;;;;10574825;27;20054;-63
2023/12/18 21:00:45;;;;;;;48.80;25.02;;;9.50;99.90;;;;;;10579023;27;20141;-64
2023/12/18 21:05:48;;;;;;;64.43;28.67;;;10.10;99.90;;;;;;10579214;27;20058;-63
2023/12/18 21:10:51;;;;;;;58.90;28.48;;;9.60;99.90;;;;;;10576220;27;20059;-63
2023/12/18 21:15:53;;;;;;;;;;;9.30;99.90;;;;;;10577940;27;20047;-62
2023/12/18 21:20:55;;;;;;;69.25;34.33;;;9.10;99.90;;;;;;10579521;27;19979;-63
2023/12/18 21:26:01;;;;;;;62.75;29.08;;;9.20;99.90;;;;;;10578174;27;20043;-64
2023/12/18 21:31:03;;;;;;;62.85;29.88;;;10.20;99.90;;;;;;10575725;27;20047;-61
2023/12/18 21:36:06;;;;;;;60.35;29.80;;;9.60;99.90;;;;;;10576448;27;20159;-62
2023/12/18 21:41:09;;;;;;;85.07;30.58;;;9.70;99.90;;;;;;10575481;27;20083;-62
2023/12/18 21:46:14;;;;;;;63.60;32.08;;;9.40;99.90;;;;;;10567659;27;20963;-63
2023/12/18 21:51:18;;;;;;;67.63;27.52;;;9.50;99.90;;;;;;10573053;27;20231;-63
2023/12/18 21:56:21;;;;;;;74.85;28.80;;;10.50;99.90;;;;;;10570896;27;20051;-63
2023/12/18 22:01:23;;;;;;;71.80;29.60;;;10.30;99.90;;;;;;10573982;27;20062;-62
2023/12/18 22:06:25;;;;;;;66.50;27.83;;;9.70;99.90;;;;;;10576147;27;20074;-62
2023/12/18 22:11:29;;;;;;;62.43;26.63;;;10.00;99.90;;;;;;10570772;27;20079;-63
2023/12/18 22:16:31;;;;;;;73.07;27.70;;;9.40;99.90;;;;;;10577727;27;20130;-62
2023/12/18 22:21:33;;;;;;;61.10;23.98;;;9.70;99.90;;;;;;10574636;27;20066;-62
2023/12/18 22:26:37;;;;;;;86.70;33.58;;;10.10;99.90;;;;;;10567175;27;20138;-63
2023/12/18 22:31:39;;;;;;;80.72;29.83;;;9.90;99.90;;;;;;10574447;27;21477;-63
2023/12/18 22:36:41;;;;;;;82.68;37.40;;;10.20;99.90;;;;;;10581404;27;20150;-63
2023/12/18 22:41:44;;;;;;;75.40;29.10;;;9.80;99.90;;;;;;10582925;27;20085;-63
2023/12/18 22:46:46;;;;;;;74.80;34.97;;;10.10;99.90;;;;;;10575186;27;20188;-62
2023/12/18 22:51:49;;;;;;;72.00;32.30;;;10.00;99.90;;;;;;10581958;27;20078;-62
2023/12/18 22:56:52;;;;;;;;;;;9.70;99.90;;;;;;10587067;27;20140;-62
2023/12/18 23:01:55;;;;;;;68.38;24.40;;;10.20;99.90;;;;;;10581936;27;19992;-62
2023/12/18 23:06:57;;;;;;;72.47;29.10;;;9.40;99.90;;;;;;10581847;27;20883;-61
2023/12/18 23:12:00;;;;;;;90.60;38.92;;;9.60;99.90;;;;;;10581793;27;20063;-61
2023/12/18 23:17:02;;;;;;;63.45;32.03;;;9.30;99.90;;;;;;10579002;27;20462;-61
2023/12/18 23:22:04;;;;;;;87.72;44.85;;;9.30;99.90;;;;;;10579299;27;20054;-62
2023/12/18 23:27:08;;;;;;;87.78;35.65;;;9.30;99.90;;;;;;10581106;27;20043;-62
2023/12/18 23:32:10;;;;;;;91.13;41.05;;;9.10;99.90;;;;;;10580227;27;20051;-62
2023/12/18 23:37:11;;;;;;;80.78;32.72;;;9.00;99.90;;;;;;10576937;27;20050;-63
2023/12/18 23:42:15;;;;;;;79.82;34.45;;;9.50;99.90;;;;;;10581918;27;20104;-62
2023/12/18 23:47:17;;;;;;;82.85;37.75;;;9.50;99.90;;;;;;10575953;27;20055;-64
2023/12/18 23:52:18;;;;;;;71.07;32.65;;;9.60;99.90;;;;;;10578395;27;20200;-63
2023/12/18 23:57:22;;;;;;;73.50;31.77;;;9.60;99.90;;;;;;10575965;27;20039;-63
